KBMT/BMT METAR and TAF weather

Enter ICAO airport designator
Station Type Date Time Source
KBMT METAR 2018/06/25 01:55 UTC NOAA

KBMT 250155Z AUTO 16004KT 10SM CLR 28/24 A2995 RMK AO2 LTG DSNT E T02750240


Station Type Date Time Source
KBMT Decoded METAR 2018/06/25 01:55 UTC NOAA

Station name not available
Jun 24, 2018 - 09:55 PM EDT / 2018.06.25 0155 UTC
Wind: from the SSE (160 degrees) at 5 MPH (4 KT):0
Visibility: 10 mile(s):0
Sky conditions: clear
Weather: Lightning observed
Temperature: 81.5 F (27.5 C)
Dew Point: 75.2 F (24.0 C)
Relative Humidity: 81%
Pressure (altimeter): 29.95 in. Hg (1014 hPa)
ob: KBMT 250155Z AUTO 16004KT 10SM CLR 28/24 A2995 RMK AO2 LTG DSNT E T02750240
cycle: 2

Station Type Date Time Source
KBMT TAF UTC NOAA

Error!


Example: see airport list